首页
METAR-TAF:

METAR-TAF

机场 :

弗林特, 密歇根州, 美国

纬度: 42-58-00N, 经度: 083-44-58W, 海拔: 238米

当前天气观测

该预报发布于15分钟前的19:53 UTC
风速11节,风向西转西南,有时为20节阵风
温度 26°C
湿度 65%
气压 1007 hPa
能見度: 16.1公里
散云层高于3400英尺
阴天层高于4500英尺

METAR: KFNT 181953Z 24011G20KT 10SM SCT034 OVC045 26/19 A2974 RMK AO2 SLP066 T02560189 $

时间: 16:08 (20:08 UTC)

预报

该预报发布于2小时和45分钟前的17:23 UTC
预报有效从18日的 18点(UTC)到 19日的 18点(UTC)
风速15节,风向南转西南,有时为25节阵风
能見度: 10公里
散云层高于3000英尺
多云层高于7000英尺
阴天层高于10000英尺
从 18日的 2100点(UTC)
风速8节,风向西
能見度: 10公里
散云层高于10000英尺
多云层高于25000英尺
从 19日的 1000点(UTC)
风速5节,风向南转西南
能見度: 9.7公里
散云层高于4500英尺
多云层高于10000英尺
阴天层高于25000英尺
轻雾
从 19日的 1700点(UTC)
风速10节,风向西,有时为20节阵风
能見度: 10公里
多云层高于8000英尺

TAF: KFNT 181723Z 1818/1918 20015G25KT P6SM SCT030 BKN070 OVC100 FM182100 28008KT P6SM SCT100 BKN250 FM191000 20005KT 6SM BR SCT045 BKN100 OVC250 FM191700 27010G20KT P6SM BKN080

超过4000个机场的气象观测和天气预报(METAR&TAF报告)。

可查询的气象台以黄色和红色小点在地图上表示。

将鼠标移到小点上方,可查看气象台名称。

然后点击查看天气观测和预报。

如需切换地图:点击带黑十字的绿色按钮放大地图;点击带横线的绿色按钮缩小地图;或者点击绿色箭头查看邻近地区的地图。


METAR-TAF: